Time;durP1;ratioP1;P1;durP2;ratioP2;P2;SDS_P1;SDS_P2;PMS_P1;PMS_P2;Temp;Humidity;BMP_temperature;BMP_pressure;BME280_temperature;BME280_humidity;BME280_pressure;Samples;Min_cycle;Max_cycle;Signal;HPM_P1;HPM_P2
2023/03/24 00:01:51;;;;;;;10.18;5.40;;;12.60;99.90;;;;;;4936616;29;20215;-74
2023/03/24 00:04:18;;;;;;;18.23;5.90;;;12.60;99.90;;;;;;4936932;29;20191;-74
2023/03/24 00:06:44;;;;;;;12.52;5.75;;;12.60;99.90;;;;;;4936842;29;20182;-75
2023/03/24 00:09:10;;;;;;;10.32;5.50;;;12.60;99.90;;;;;;4938260;29;20516;-74
2023/03/24 00:11:36;;;;;;;11.82;5.40;;;12.60;99.90;;;;;;4939436;29;20223;-76
2023/03/24 00:14:02;;;;;;;13.27;5.85;;;12.60;99.90;;;;;;4941899;29;20197;-74
2023/03/24 00:16:28;;;;;;;14.15;5.90;;;12.60;99.90;;;;;;4939960;29;20247;-73
2023/03/24 00:18:54;;;;;;;16.35;5.70;;;12.70;99.90;;;;;;4956261;28;20608;-73
2023/03/24 00:21:24;;;;;;;10.98;5.63;;;12.60;99.90;;;;;;4944070;29;20214;-74
2023/03/24 00:23:54;;;;;;;15.50;6.25;;;12.70;99.90;;;;;;4959690;28;20597;-74
2023/03/24 00:26:20;;;;;;;13.68;5.75;;;12.60;99.90;;;;;;4941766;29;20184;-74
2023/03/24 00:28:47;;;;;;;14.55;6.30;;;12.70;99.90;;;;;;4938820;29;20179;-74
2023/03/24 00:31:15;;;;;;;12.35;5.63;;;12.60;99.90;;;;;;4953687;28;20194;-75
2023/03/24 00:33:42;;;;;;;10.63;5.72;;;12.60;99.90;;;;;;4939750;29;20187;-74
2023/03/24 00:36:13;;;;;;;12.57;5.85;;;12.60;99.90;;;;;;4954557;29;20282;-75
2023/03/24 00:38:40;;;;;;;14.85;5.50;;;12.60;99.90;;;;;;4940031;29;20609;-73
2023/03/24 00:41:09;;;;;;;10.20;5.47;;;12.60;99.90;;;;;;4939484;29;20219;-74
2023/03/24 00:43:36;;;;;;;11.10;5.68;;;12.60;99.90;;;;;;4923612;29;20282;-76
2023/03/24 00:46:05;;;;;;;9.48;5.53;;;12.60;99.90;;;;;;4940594;29;20227;-74
2023/03/24 00:48:33;;;;;;;13.10;5.93;;;12.60;99.90;;;;;;4940104;29;20163;-74
2023/03/24 00:51:04;;;;;;;11.73;5.45;;;12.60;99.90;;;;;;4939873;29;20191;-74
2023/03/24 00:53:30;;;;;;;11.30;5.68;;;12.60;99.90;;;;;;4955718;29;20186;-74
2023/03/24 00:55:57;;;;;;;11.57;5.60;;;12.60;99.90;;;;;;4938850;29;20703;-74
2023/03/24 00:58:24;;;;;;;12.93;5.75;;;12.50;99.90;;;;;;4940105;29;20183;-74
2023/03/24 01:00:53;;;;;;;8.13;5.10;;;12.50;99.90;;;;;;4939605;29;20211;-76
2023/03/24 01:03:26;;;;;;;10.30;5.38;;;12.50;99.90;;;;;;4939375;29;20184;-75
2023/03/24 01:06:00;;;;;;;11.70;5.30;;;12.50;99.90;;;;;;4938442;29;20242;-74
2023/03/24 01:08:27;;;;;;;11.85;5.60;;;12.50;99.90;;;;;;4954120;28;20179;-74
2023/03/24 01:10:54;;;;;;;11.80;5.38;;;12.50;99.90;;;;;;4937480;29;20247;-75
2023/03/24 01:13:22;;;;;;;10.55;5.00;;;12.50;99.90;;;;;;4937790;29;20694;-73
2023/03/24 01:15:48;;;;;;;9.43;5.20;;;12.50;99.90;;;;;;4953670;29;20547;-78
2023/03/24 01:18:15;;;;;;;8.88;4.88;;;12.50;99.90;;;;;;4938523;29;20242;-74
2023/03/24 01:20:44;;;;;;;8.18;4.72;;;12.50;99.90;;;;;;4937397;29;20217;-74
2023/03/24 01:23:13;;;;;;;8.80;5.25;;;12.50;99.90;;;;;;4953354;29;20179;-74
2023/03/24 01:25:44;;;;;;;10.32;5.22;;;12.50;99.90;;;;;;4937368;29;20211;-74
2023/03/24 01:28:11;;;;;;;9.90;4.95;;;12.40;99.90;;;;;;4937554;29;20187;-76
2023/03/24 01:30:38;;;;;;;11.38;5.03;;;12.40;99.90;;;;;;4937857;29;20199;-73
2023/03/24 01:33:04;;;;;;;7.03;4.40;;;12.40;99.90;;;;;;4953334;29;20543;-73
2023/03/24 01:35:30;;;;;;;8.68;5.30;;;12.40;99.90;;;;;;4938980;29;20184;-74
2023/03/24 01:37:57;;;;;;;8.10;4.63;;;12.50;99.90;;;;;;4953088;29;20245;-74
2023/03/24 01:40:26;;;;;;;8.18;5.07;;;12.50;99.90;;;;;;4938065;29;20211;-75
2023/03/24 01:42:52;;;;;;;11.52;4.63;;;12.50;99.90;;;;;;4936851;29;20223;-74
2023/03/24 01:45:37;;;;;;;7.93;4.97;;;12.50;99.90;;;;;;4953761;29;20191;-73
2023/03/24 01:48:09;;;;;;;10.15;5.13;;;12.50;99.90;;;;;;4938225;29;20179;-73
2023/03/24 01:50:35;;;;;;;7.55;4.50;;;12.50;99.90;;;;;;4938471;29;20187;-74
2023/03/24 01:53:01;;;;;;;9.45;4.57;;;12.50;99.90;;;;;;4936913;29;20184;-74
2023/03/24 01:55:28;;;;;;;8.45;4.90;;;12.50;99.90;;;;;;4952895;29;20191;-73
2023/03/24 01:57:59;;;;;;;8.23;4.75;;;12.50;99.90;;;;;;4936667;29;20195;-73
2023/03/24 02:00:31;;;;;;;8.20;4.82;;;12.50;99.90;;;;;;4952648;29;20251;-73
2023/03/24 02:03:20;;;;;;;8.43;4.88;;;12.50;99.90;;;;;;4937448;29;20199;-74
2023/03/24 02:05:53;;;;;;;8.30;4.38;;;12.50;99.90;;;;;;4936726;29;20547;-73
2023/03/24 02:08:41;;;;;;;6.97;4.65;;;12.50;99.90;;;;;;4935963;29;20227;-73
2023/03/24 02:11:08;;;;;;;7.63;4.53;;;12.40;99.90;;;;;;4937646;29;20687;-73
2023/03/24 02:13:42;;;;;;;10.02;4.63;;;12.50;99.90;;;;;;4936244;29;20186;-75
2023/03/24 02:16:28;;;;;;;7.18;4.55;;;12.50;99.90;;;;;;4936099;29;20179;-73
2023/03/24 02:19:25;;;;;;;7.82;4.28;;;12.50;99.90;;;;;;4936676;29;20179;-73
2023/03/24 02:22:28;;;;;;;8.57;4.50;;;12.50;99.90;;;;;;4938329;29;20293;-74
2023/03/24 02:25:20;;;;;;;8.88;4.28;;;12.50;99.90;;;;;;4936188;29;20183;-77
2023/03/24 02:28:17;;;;;;;6.63;4.15;;;12.50;99.90;;;;;;4952315;29;20302;-74
2023/03/24 02:30:52;;;;;;;8.02;4.40;;;12.50;99.90;;;;;;4936105;29;20179;-73
2023/03/24 02:33:46;;;;;;;8.68;4.25;;;12.50;99.90;;;;;;4952420;28;20517;-73
2023/03/24 02:36:32;;;;;;;8.32;4.55;;;12.50;99.90;;;;;;4952016;29;20180;-73
2023/03/24 02:39:23;;;;;;;6.97;4.50;;;12.50;99.90;;;;;;4952651;29;20175;-73
2023/03/24 02:42:15;;;;;;;8.43;4.63;;;12.50;99.90;;;;;;4951958;29;20217;-73
2023/03/24 02:44:53;;;;;;;7.18;4.18;;;12.50;99.90;;;;;;4933383;29;20210;-73
2023/03/24 02:47:28;;;;;;;9.05;4.88;;;12.50;99.90;;;;;;4952082;29;20223;-74
2023/03/24 02:50:30;;;;;;;7.07;4.50;;;12.50;99.90;;;;;;4936820;29;20163;-73
2023/03/24 02:53:20;;;;;;;7.28;4.82;;;12.50;99.90;;;;;;4935404;29;20182;-72
2023/03/24 02:56:20;;;;;;;6.57;4.30;;;12.50;99.90;;;;;;4937120;28;20327;-72
2023/03/24 02:59:01;;;;;;;7.30;4.45;;;12.50;99.90;;;;;;4952271;29;20536;-74
2023/03/24 03:01:39;;;;;;;9.63;4.88;;;12.50;99.90;;;;;;4951870;29;20220;-72
2023/03/24 03:04:51;;;;;;;8.85;4.80;;;12.50;99.90;;;;;;4937440;29;20266;-73
2023/03/24 03:07:21;;;;;;;8.70;4.82;;;12.50;99.90;;;;;;4935836;29;20171;-73
2023/03/24 03:10:01;;;;;;;6.30;4.70;;;12.50;99.90;;;;;;4951338;29;20242;-73
2023/03/24 03:12:32;;;;;;;7.35;4.55;;;12.60;99.90;;;;;;4950963;29;20171;-73
2023/03/24 03:15:07;;;;;;;6.93;4.50;;;12.60;99.90;;;;;;4952031;29;20167;-73
2023/03/24 03:17:39;;;;;;;6.88;4.60;;;12.60;99.90;;;;;;4951453;29;20170;-73
2023/03/24 03:20:20;;;;;;;6.78;4.13;;;12.60;99.90;;;;;;4936571;29;20164;-73
2023/03/24 03:22:58;;;;;;;6.32;4.40;;;12.60;99.90;;;;;;4951302;29;20180;-74
2023/03/24 03:25:29;;;;;;;6.45;4.30;;;12.60;99.90;;;;;;4951528;29;20184;-73
2023/03/24 03:27:59;;;;;;;7.32;4.40;;;12.60;99.90;;;;;;4950937;28;20171;-73
2023/03/24 03:30:39;;;;;;;7.43;3.95;;;12.60;99.90;;;;;;4936402;29;20234;-73
2023/03/24 03:33:11;;;;;;;6.63;3.42;;;12.60;99.90;;;;;;4936674;29;20592;-76
2023/03/24 03:35:42;;;;;;;4.63;3.28;;;12.70;99.90;;;;;;4951437;28;20298;-75
2023/03/24 03:38:35;;;;;;;6.13;3.60;;;12.70;99.90;;;;;;4936165;29;20686;-73
2023/03/24 03:41:03;;;;;;;5.95;3.40;;;12.60;99.90;;;;;;4935019;29;20721;-73
2023/03/24 03:43:34;;;;;;;4.90;3.45;;;12.60;99.90;;;;;;4951835;29;20605;-73
2023/03/24 03:46:00;;;;;;;7.35;3.08;;;12.60;99.90;;;;;;4935192;29;20655;-73
2023/03/24 03:48:33;;;;;;;6.68;3.30;;;12.60;99.90;;;;;;4951286;29;20183;-73
2023/03/24 03:50:59;;;;;;;6.63;3.42;;;12.50;99.90;;;;;;4951086;28;20654;-73
2023/03/24 03:53:32;;;;;;;6.05;3.67;;;12.50;99.90;;;;;;4936110;29;20167;-73
2023/03/24 03:55:59;;;;;;;7.07;3.92;;;12.50;99.90;;;;;;4935969;29;20183;-74
2023/03/24 03:58:27;;;;;;;6.15;3.60;;;12.50;99.90;;;;;;4951159;28;20207;-74
2023/03/24 04:00:56;;;;;;;5.57;3.42;;;12.40;99.90;;;;;;4951577;29;20265;-74
2023/03/24 04:04:12;;;;;;;6.90;3.08;;;12.40;99.90;;;;;;4950868;29;20202;-73
2023/03/24 04:07:27;;;;;;;6.22;2.80;;;12.30;99.90;;;;;;4954509;28;20187;-73
2023/03/24 04:10:23;;;;;;;8.13;2.60;;;12.30;99.90;;;;;;4938527;29;20259;-73
2023/03/24 04:12:54;;;;;;;5.22;2.60;;;12.20;99.90;;;;;;4954639;28;20334;-73
2023/03/24 04:16:08;;;;;;;5.68;2.25;;;12.20;99.90;;;;;;4939481;29;20241;-73
2023/03/24 04:19:27;;;;;;;10.00;2.75;;;12.20;99.90;;;;;;4939710;29;20164;-73
2023/03/24 04:22:37;;;;;;;9.05;2.22;;;12.10;99.90;;;;;;4954275;28;20679;-74
2023/03/24 04:25:43;;;;;;;9.57;2.30;;;12.10;99.90;;;;;;4938295;29;20180;-72
2023/03/24 04:28:25;;;;;;;11.30;2.00;;;12.00;99.90;;;;;;4938789;29;20191;-73
2023/03/24 04:31:13;;;;;;;11.02;2.10;;;12.00;99.90;;;;;;4938894;29;20499;-73
2023/03/24 04:34:02;;;;;;;6.60;1.90;;;12.00;99.90;;;;;;4954212;29;20525;-73
2023/03/24 04:36:49;;;;;;;6.35;2.08;;;11.90;99.90;;;;;;4937817;29;20194;-72
2023/03/24 04:39:27;;;;;;;7.88;2.10;;;11.90;99.90;;;;;;4939527;29;20577;-74
2023/03/24 04:41:57;;;;;;;11.70;2.22;;;11.80;99.90;;;;;;4938318;29;20301;-78
2023/03/24 04:44:26;;;;;;;7.82;1.88;;;11.80;99.90;;;;;;4938262;29;20171;-73
2023/03/24 04:47:19;;;;;;;7.70;1.85;;;11.80;99.90;;;;;;4947130;29;20191;-73
2023/03/24 04:50:01;;;;;;;9.02;1.50;;;11.70;99.90;;;;;;4954181;28;20187;-72
2023/03/24 04:52:28;;;;;;;9.07;1.90;;;11.70;99.90;;;;;;4954601;29;20206;-72
2023/03/24 04:54:55;;;;;;;9.57;2.00;;;11.60;99.90;;;;;;4938076;29;20227;-73
2023/03/24 04:57:20;;;;;;;6.80;2.05;;;11.60;99.90;;;;;;4937998;29;20227;-75
2023/03/24 04:59:49;;;;;;;7.57;2.00;;;11.60;99.90;;;;;;4937790;29;20187;-76
2023/03/24 05:02:16;;;;;;;11.93;2.20;;;11.50;99.90;;;;;;4953809;29;20697;-74
2023/03/24 05:04:56;;;;;;;14.13;2.20;;;11.40;99.90;;;;;;4954531;28;20191;-74
2023/03/24 05:07:27;;;;;;;13.48;2.40;;;11.40;99.90;;;;;;4938435;29;20187;-74
2023/03/24 05:09:58;;;;;;;8.30;2.13;;;11.40;99.90;;;;;;4937905;29;20190;-73
2023/03/24 05:12:24;;;;;;;6.75;2.10;;;11.40;99.90;;;;;;4953518;29;20191;-73
2023/03/24 05:15:09;;;;;;;11.80;2.85;;;11.30;99.90;;;;;;4938975;29;20570;-76
2023/03/24 05:17:36;;;;;;;15.55;2.50;;;11.30;99.90;;;;;;4936789;29;20278;-74
2023/03/24 05:20:07;;;;;;;11.90;2.65;;;11.20;99.90;;;;;;4954007;29;20198;-74
2023/03/24 05:22:35;;;;;;;11.85;2.10;;;11.20;99.90;;;;;;4953587;29;20180;-75
2023/03/24 05:25:01;;;;;;;15.27;2.22;;;11.20;99.90;;;;;;4938243;29;20604;-74
2023/03/24 05:27:27;;;;;;;12.10;2.47;;;11.20;99.90;;;;;;4953177;29;20266;-74
2023/03/24 05:29:53;;;;;;;13.23;2.78;;;11.10;99.90;;;;;;4937244;29;20175;-73
2023/03/24 05:32:22;;;;;;;17.92;2.97;;;11.10;99.90;;;;;;4953015;29;20254;-73
2023/03/24 05:34:48;;;;;;;11.80;2.88;;;11.20;99.90;;;;;;4938484;29;20620;-74
2023/03/24 05:37:16;;;;;;;9.95;2.95;;;11.10;99.90;;;;;;4952595;29;20668;-73
2023/03/24 05:39:45;;;;;;;12.60;2.40;;;11.10;99.90;;;;;;4936970;29;20674;-72
2023/03/24 05:42:28;;;;;;;12.15;3.00;;;11.10;99.90;;;;;;4937065;29;20678;-73
2023/03/24 05:44:55;;;;;;;16.85;3.17;;;11.10;99.90;;;;;;4952910;29;20565;-73
2023/03/24 05:47:26;;;;;;;16.55;3.30;;;11.10;99.90;;;;;;4937097;29;20198;-73
2023/03/24 05:49:52;;;;;;;12.68;2.85;;;11.10;99.90;;;;;;4937327;29;20183;-73
2023/03/24 05:52:19;;;;;;;17.50;3.38;;;11.10;99.90;;;;;;4936288;29;20184;-73
2023/03/24 05:54:50;;;;;;;14.18;3.25;;;11.10;99.90;;;;;;4936873;29;20194;-73
2023/03/24 05:57:20;;;;;;;14.43;3.00;;;11.10;99.90;;;;;;4937102;29;20196;-73
2023/03/24 06:00:09;;;;;;;18.02;3.38;;;11.10;99.90;;;;;;4952735;28;20191;-73
2023/03/24 06:02:47;;;;;;;15.45;3.38;;;11.10;99.90;;;;;;4936729;29;20171;-73
2023/03/24 06:05:39;;;;;;;15.25;3.15;;;11.10;99.90;;;;;;4951482;28;20282;-74
2023/03/24 06:08:05;;;;;;;19.13;3.38;;;11.10;99.90;;;;;;4952820;29;20214;-73
2023/03/24 06:10:35;;;;;;;14.45;3.25;;;11.10;99.90;;;;;;4936078;29;20235;-72
2023/03/24 06:13:02;;;;;;;19.60;3.38;;;11.10;99.90;;;;;;4936259;29;20186;-72
2023/03/24 06:15:29;;;;;;;13.32;3.50;;;11.10;99.90;;;;;;4936407;29;20199;-73
2023/03/24 06:18:06;;;;;;;19.38;3.47;;;11.10;99.90;;;;;;4937066;29;20218;-73
2023/03/24 06:20:34;;;;;;;17.05;2.90;;;11.10;99.90;;;;;;4936597;29;20210;-72
2023/03/24 06:23:16;;;;;;;12.98;2.83;;;11.10;99.90;;;;;;4936161;29;20186;-74
2023/03/24 06:26:02;;;;;;;21.90;3.30;;;11.00;99.90;;;;;;4952121;29;20273;-73
2023/03/24 06:28:33;;;;;;;17.25;3.33;;;11.00;99.90;;;;;;4935344;29;20266;-73
2023/03/24 06:31:04;;;;;;;20.38;3.00;;;11.00;99.90;;;;;;4952457;28;20628;-73
2023/03/24 06:33:33;;;;;;;16.98;3.00;;;11.00;99.90;;;;;;4951634;29;20226;-74
2023/03/24 06:36:00;;;;;;;13.77;2.80;;;11.00;99.90;;;;;;4935735;29;20227;-74
2023/03/24 06:38:27;;;;;;;11.98;3.03;;;11.00;99.90;;;;;;4935844;29;20219;-73
2023/03/24 06:40:53;;;;;;;13.13;2.50;;;11.00;99.90;;;;;;4935519;29;20207;-78
2023/03/24 06:43:19;;;;;;;13.98;2.85;;;11.00;99.90;;;;;;4951462;29;20225;-74
2023/03/24 06:45:45;;;;;;;11.65;2.70;;;11.00;99.90;;;;;;4952286;29;20270;-74
2023/03/24 06:48:18;;;;;;;16.90;6.00;;;11.00;99.90;;;;;;4951582;29;20246;-73
2023/03/24 06:50:44;;;;;;;16.73;3.08;;;11.00;99.90;;;;;;4935463;29;20180;-73
2023/03/24 06:53:10;;;;;;;18.63;3.40;;;11.00;99.90;;;;;;4935370;29;20187;-73
2023/03/24 06:55:37;;;;;;;20.75;3.80;;;11.00;99.90;;;;;;4920309;29;20183;-73
2023/03/24 06:58:04;;;;;;;78.70;35.30;;;11.00;99.90;;;;;;4951333;29;20196;-75
2023/03/24 07:00:38;;;;;;;20.50;6.15;;;11.00;99.90;;;;;;4951496;28;20229;-73
2023/03/24 07:03:33;;;;;;;18.75;3.67;;;11.00;99.90;;;;;;4968240;28;20197;-73
2023/03/24 07:06:11;;;;;;;18.58;2.95;;;11.00;99.90;;;;;;4936601;29;20206;-75
2023/03/24 07:08:37;;;;;;;15.27;3.05;;;11.00;99.90;;;;;;4935383;29;20183;-73
2023/03/24 07:11:04;;;;;;;12.93;3.08;;;11.00;99.90;;;;;;4935188;29;20317;-73
2023/03/24 07:13:31;;;;;;;16.70;3.38;;;11.00;99.90;;;;;;4935725;29;20195;-74
2023/03/24 07:16:02;;;;;;;17.70;3.20;;;11.00;99.90;;;;;;4951295;29;20187;-73
2023/03/24 07:18:28;;;;;;;18.00;3.70;;;11.00;99.90;;;;;;4950886;28;20198;-74
2023/03/24 07:21:00;;;;;;;21.35;3.92;;;11.00;99.90;;;;;;4935667;29;20290;-73
2023/03/24 07:23:27;;;;;;;19.58;3.50;;;11.00;99.90;;;;;;4935312;29;20193;-74
2023/03/24 07:25:59;;;;;;;16.13;3.20;;;11.00;99.90;;;;;;4951152;29;20183;-73
2023/03/24 07:28:49;;;;;;;15.68;3.28;;;11.00;99.90;;;;;;4937809;29;20632;-73
2023/03/24 07:31:37;;;;;;;19.55;3.40;;;11.00;99.90;;;;;;4951098;29;20207;-77
2023/03/24 07:34:07;;;;;;;16.48;3.10;;;11.00;99.90;;;;;;4935091;28;20179;-76
2023/03/24 07:36:35;;;;;;;22.10;3.33;;;11.00;99.90;;;;;;4935518;29;20286;-76
2023/03/24 07:39:03;;;;;;;18.45;3.60;;;11.10;99.90;;;;;;4950959;29;20191;-73
2023/03/24 07:41:35;;;;;;;23.25;4.07;;;11.10;99.90;;;;;;4934281;29;20219;-76
2023/03/24 07:44:07;;;;;;;19.98;3.90;;;11.10;99.90;;;;;;4951005;29;20341;-73
2023/03/24 07:46:38;;;;;;;20.85;3.58;;;11.10;99.90;;;;;;4935246;29;20183;-73
2023/03/24 07:49:05;;;;;;;19.85;3.33;;;11.10;99.90;;;;;;4951299;29;20179;-74
2023/03/24 07:51:32;;;;;;;23.98;4.10;;;11.10;99.90;;;;;;4935497;29;20187;-79
2023/03/24 07:54:16;;;;;;;31.20;3.55;;;11.10;99.90;;;;;;4936470;29;20268;-73
2023/03/24 07:56:46;;;;;;;23.85;3.95;;;11.10;99.90;;;;;;4934921;29;20202;-74
2023/03/24 07:59:12;;;;;;;27.85;4.53;;;11.10;99.90;;;;;;4950707;29;20632;-73
2023/03/24 08:02:04;;;;;;;26.15;3.35;;;11.10;99.90;;;;;;4936902;28;20309;-73
2023/03/24 08:04:55;;;;;;;22.40;3.70;;;11.20;99.90;;;;;;4936343;29;20190;-74
2023/03/24 08:07:44;;;;;;;21.13;3.42;;;11.10;99.90;;;;;;4935583;29;20230;-73
2023/03/24 08:10:16;;;;;;;20.75;4.53;;;11.20;99.90;;;;;;4935283;29;20184;-75
2023/03/24 08:12:42;;;;;;;19.65;3.50;;;11.20;99.90;;;;;;4935955;29;20275;-73
2023/03/24 08:15:09;;;;;;;26.80;3.65;;;11.20;99.90;;;;;;4934153;29;20184;-73
2023/03/24 08:17:35;;;;;;;23.23;4.32;;;11.20;99.90;;;;;;4935391;29;20190;-73
2023/03/24 08:20:13;;;;;;;23.60;4.20;;;11.20;99.90;;;;;;4950549;29;20187;-73
2023/03/24 08:22:41;;;;;;;17.42;3.67;;;11.20;99.90;;;;;;4935308;29;20230;-73
2023/03/24 08:25:09;;;;;;;26.15;4.07;;;11.30;99.90;;;;;;4950239;29;20624;-73
2023/03/24 08:27:36;;;;;;;22.58;3.90;;;11.30;99.90;;;;;;4934261;29;20243;-73
2023/03/24 08:30:04;;;;;;;21.10;3.58;;;11.30;99.90;;;;;;4935552;29;20202;-73
2023/03/24 08:32:30;;;;;;;27.40;4.32;;;11.40;99.90;;;;;;4934289;29;20278;-74
2023/03/24 08:34:57;;;;;;;23.77;3.83;;;11.50;99.90;;;;;;4950790;29;20616;-74
2023/03/24 08:37:22;;;;;;;25.02;3.70;;;11.50;99.90;;;;;;4934006;29;20274;-73
2023/03/24 08:39:48;;;;;;;23.83;3.67;;;11.50;99.90;;;;;;4935525;29;20263;-75
2023/03/24 08:42:14;;;;;;;23.17;4.07;;;11.60;99.90;;;;;;4949641;29;20639;-74
2023/03/24 08:44:41;;;;;;;26.20;4.57;;;11.70;99.90;;;;;;4934364;29;20199;-74
2023/03/24 08:47:06;;;;;;;19.00;3.67;;;11.90;99.90;;;;;;4935534;29;20183;-74
2023/03/24 08:49:32;;;;;;;19.65;4.00;;;12.00;99.90;;;;;;4935142;29;20175;-74
2023/03/24 08:51:58;;;;;;;22.95;3.47;;;12.20;99.90;;;;;;4936414;29;20202;-74
2023/03/24 08:54:25;;;;;;;20.02;3.55;;;12.40;99.90;;;;;;4939048;29;20592;-77
2023/03/24 08:56:50;;;;;;;20.20;3.70;;;12.50;99.90;;;;;;4938726;29;20184;-76
2023/03/24 08:59:17;;;;;;;30.05;4.85;;;12.60;99.90;;;;;;4953507;29;20659;-75
2023/03/24 09:01:42;;;;;;;24.20;4.00;;;12.90;99.90;;;;;;4938303;29;20274;-74
2023/03/24 09:04:08;;;;;;;20.77;4.10;;;13.10;99.90;;;;;;4938453;29;20183;-74
2023/03/24 09:06:34;;;;;;;25.27;4.00;;;13.30;99.90;;;;;;4938666;29;20179;-75
2023/03/24 09:09:00;;;;;;;21.58;4.57;;;13.50;99.90;;;;;;4937205;29;20194;-74
2023/03/24 09:11:26;;;;;;;24.13;3.78;;;13.60;99.90;;;;;;4938332;29;20238;-78
2023/03/24 09:13:52;;;;;;;21.95;3.58;;;13.80;99.90;;;;;;4937812;29;20194;-75
2023/03/24 09:16:18;;;;;;;21.85;3.50;;;14.00;99.90;;;;;;4938592;29;20179;-74
2023/03/24 09:18:44;;;;;;;23.00;3.83;;;14.20;99.90;;;;;;4938154;29;20551;-75
2023/03/24 09:21:10;;;;;;;20.58;3.97;;;14.50;99.90;;;;;;4938527;29;20659;-73
2023/03/24 09:23:36;;;;;;;22.33;3.70;;;14.80;99.90;;;;;;4938285;29;20283;-74
2023/03/24 09:26:02;;;;;;;22.63;3.03;;;14.90;99.90;;;;;;4937173;29;20183;-77
2023/03/24 09:28:28;;;;;;;18.70;3.17;;;15.20;99.90;;;;;;4937515;29;20189;-73
2023/03/24 09:30:59;;;;;;;18.15;3.22;;;15.50;99.90;;;;;;4953018;29;20225;-75
2023/03/24 09:33:25;;;;;;;19.08;3.47;;;15.70;99.90;;;;;;4936934;29;20215;-73
2023/03/24 09:35:58;;;;;;;20.48;3.78;;;15.90;99.90;;;;;;4938021;29;20254;-73
2023/03/24 09:38:25;;;;;;;18.52;3.30;;;16.20;99.90;;;;;;4936960;29;20183;-76
2023/03/24 09:41:02;;;;;;;17.88;3.85;;;16.30;99.90;;;;;;4936872;29;20222;-77
2023/03/24 09:43:45;;;;;;;18.45;3.55;;;16.40;99.90;;;;;;4952715;29;20266;-76
2023/03/24 09:46:16;;;;;;;21.52;3.63;;;16.50;99.90;;;;;;4937954;29;20167;-73
2023/03/24 09:48:50;;;;;;;19.45;3.35;;;16.40;99.90;;;;;;4953510;28;20175;-75
2023/03/24 09:51:22;;;;;;;21.55;4.47;;;16.20;99.90;;;;;;4952543;29;20720;-76
2023/03/24 09:54:08;;;;;;;15.88;3.55;;;16.00;99.90;;;;;;4953205;29;20182;-78
2023/03/24 09:56:36;;;;;;;18.83;3.63;;;15.70;99.90;;;;;;4952431;29;20176;-74
2023/03/24 09:59:20;;;;;;;18.33;3.72;;;15.60;99.90;;;;;;4937618;29;20252;-75
2023/03/24 10:01:47;;;;;;;16.05;3.83;;;15.40;99.90;;;;;;4937110;29;20196;-74
2023/03/24 10:04:16;;;;;;;20.77;5.13;;;15.30;99.90;;;;;;4951594;29;20215;-74
2023/03/24 10:06:43;;;;;;;14.85;3.22;;;15.10;99.90;;;;;;4937829;29;20179;-75
2023/03/24 10:09:27;;;;;;;20.38;3.33;;;15.00;99.90;;;;;;4952254;29;20187;-73
2023/03/24 10:11:59;;;;;;;19.40;3.38;;;14.90;99.90;;;;;;4936809;29;20227;-78
2023/03/24 10:15:05;;;;;;;14.93;3.10;;;15.00;99.90;;;;;;4937660;29;20565;-73
2023/03/24 10:17:33;;;;;;;14.20;3.10;;;15.20;99.90;;;;;;4937037;29;20619;-75
2023/03/24 10:20:20;;;;;;;21.60;3.40;;;15.50;99.90;;;;;;4937021;29;20179;-75
2023/03/24 10:23:02;;;;;;;13.73;2.92;;;15.80;99.90;;;;;;4937407;29;20262;-74
2023/03/24 10:25:55;;;;;;;20.35;3.25;;;15.90;99.90;;;;;;4937683;29;20199;-75
2023/03/24 10:28:30;;;;;;;16.10;2.88;;;15.80;99.90;;;;;;4927703;29;20652;-74
2023/03/24 10:31:01;;;;;;;15.68;3.33;;;15.70;99.90;;;;;;4951930;29;20198;-76
2023/03/24 10:33:27;;;;;;;18.80;3.33;;;15.50;99.90;;;;;;4936920;29;20222;-73
2023/03/24 10:36:17;;;;;;;16.17;3.15;;;15.40;99.90;;;;;;4951649;29;20184;-73
2023/03/24 10:38:43;;;;;;;18.25;3.47;;;15.60;99.90;;;;;;4933409;29;20226;-76
2023/03/24 10:41:22;;;;;;;17.27;3.33;;;15.80;99.90;;;;;;4952180;29;20239;-76
2023/03/24 10:43:50;;;;;;;15.07;2.67;;;16.10;99.90;;;;;;4936407;29;20171;-73
2023/03/24 10:46:25;;;;;;;13.55;2.70;;;16.40;99.90;;;;;;4951815;29;20176;-74
2023/03/24 10:49:05;;;;;;;14.75;2.90;;;16.70;99.90;;;;;;4935750;29;20214;-77
2023/03/24 10:51:33;;;;;;;19.17;3.20;;;16.80;99.90;;;;;;4922112;29;20595;-80
2023/03/24 10:54:24;;;;;;;15.75;3.30;;;16.90;99.90;;;;;;4936933;29;20183;-79
2023/03/24 10:56:56;;;;;;;13.30;2.47;;;17.10;99.90;;;;;;4938486;29;20670;-79
2023/03/24 11:00:16;;;;;;;12.88;2.63;;;17.20;99.50;;;;;;4937113;29;20685;-74
2023/03/24 11:02:42;;;;;;;13.00;2.78;;;17.20;98.70;;;;;;4936391;29;20538;-73
2023/03/24 11:05:15;;;;;;;13.77;2.67;;;17.20;98.20;;;;;;4951526;29;20632;-75
2023/03/24 11:07:45;;;;;;;17.23;3.08;;;17.10;98.40;;;;;;4936720;29;20171;-72
2023/03/24 11:10:15;;;;;;;16.13;2.90;;;17.10;98.20;;;;;;4951772;29;20183;-75
2023/03/24 11:12:53;;;;;;;15.90;2.97;;;17.10;97.70;;;;;;4936172;29;20171;-74
2023/03/24 11:15:30;;;;;;;14.82;2.97;;;17.10;96.70;;;;;;4935745;29;20233;-72
2023/03/24 11:18:06;;;;;;;15.95;2.90;;;17.10;97.00;;;;;;4936387;29;20262;-72
2023/03/24 11:20:38;;;;;;;10.80;2.58;;;17.10;97.00;;;;;;4951207;29;20273;-73
2023/03/24 11:23:27;;;;;;;17.35;3.20;;;17.00;96.90;;;;;;4936658;29;20211;-74
2023/03/24 11:26:05;;;;;;;18.52;3.10;;;17.10;96.40;;;;;;4936091;29;20172;-75
2023/03/24 11:28:37;;;;;;;10.65;2.75;;;17.00;96.40;;;;;;4935800;29;20183;-79
2023/03/24 11:31:23;;;;;;;15.18;3.00;;;17.00;96.00;;;;;;4950841;29;20583;-74
2023/03/24 11:33:59;;;;;;;13.35;2.78;;;17.00;95.70;;;;;;4936704;29;20168;-73
2023/03/24 11:36:34;;;;;;;10.50;2.58;;;17.10;95.80;;;;;;4951449;29;20238;-75
2023/03/24 11:39:09;;;;;;;13.55;2.70;;;17.20;94.80;;;;;;4950851;29;20190;-80
2023/03/24 11:41:37;;;;;;;12.40;2.65;;;17.20;94.70;;;;;;4934966;29;20202;-77
2023/03/24 11:44:20;;;;;;;24.55;3.42;;;17.10;95.00;;;;;;4950976;28;20214;-74
2023/03/24 11:46:52;;;;;;;17.92;3.30;;;17.10;94.60;;;;;;4936150;29;20227;-74
2023/03/24 11:49:21;;;;;;;17.23;3.13;;;17.10;95.00;;;;;;4936219;29;20227;-74
2023/03/24 11:51:51;;;;;;;13.68;3.10;;;17.20;95.00;;;;;;4935894;29;20262;-74
2023/03/24 11:54:20;;;;;;;12.23;3.08;;;17.20;94.30;;;;;;4936166;29;20182;-73
2023/03/24 11:56:52;;;;;;;16.95;2.85;;;17.10;93.50;;;;;;4936058;29;20230;-73
2023/03/24 11:59:29;;;;;;;12.02;2.70;;;16.90;93.10;;;;;;4936177;29;20163;-74
2023/03/24 12:02:03;;;;;;;12.38;2.40;;;16.80;93.00;;;;;;4936252;29;20262;-73
2023/03/24 12:04:48;;;;;;;14.40;2.88;;;16.60;93.30;;;;;;4935756;29;20600;-73
2023/03/24 12:07:32;;;;;;;14.75;2.78;;;16.60;93.40;;;;;;4935588;29;20196;-73
2023/03/24 12:10:20;;;;;;;12.13;2.38;;;16.50;93.40;;;;;;4935669;29;20190;-80
2023/03/24 12:13:06;;;;;;;12.30;2.72;;;16.40;93.30;;;;;;4951059;29;20259;-74
2023/03/24 12:15:40;;;;;;;19.02;3.85;;;16.40;93.60;;;;;;4936283;29;20191;-73
2023/03/24 12:18:33;;;;;;;18.50;2.92;;;16.40;93.70;;;;;;4936362;29;20171;-73
2023/03/24 12:21:34;;;;;;;12.70;2.55;;;16.40;93.40;;;;;;4936459;28;20484;-78
2023/03/24 12:24:10;;;;;;;15.90;2.80;;;16.40;93.30;;;;;;4930840;29;20195;-76
2023/03/24 12:26:38;;;;;;;14.80;2.88;;;16.30;93.50;;;;;;4937657;29;20174;-79
2023/03/24 12:29:36;;;;;;;14.75;3.25;;;16.20;93.90;;;;;;4939188;29;20184;-77
2023/03/24 12:32:36;;;;;;;15.80;2.55;;;16.10;94.30;;;;;;4939701;29;20190;-74
2023/03/24 12:35:29;;;;;;;16.38;2.90;;;16.10;94.50;;;;;;4953654;28;20183;-73
2023/03/24 12:38:10;;;;;;;13.20;2.75;;;16.10;94.90;;;;;;4938278;29;20593;-73
2023/03/24 12:40:47;;;;;;;17.63;3.17;;;16.20;95.30;;;;;;4939351;29;20228;-73
2023/03/24 12:43:44;;;;;;;15.40;2.63;;;16.30;95.30;;;;;;4939543;29;20171;-72
2023/03/24 12:46:47;;;;;;;14.70;2.33;;;16.30;95.00;;;;;;4939097;29;20242;-74
2023/03/24 12:49:42;;;;;;;15.18;2.47;;;16.20;94.80;;;;;;4923272;29;20307;-72
2023/03/24 12:52:08;;;;;;;17.15;2.60;;;16.20;94.90;;;;;;4938880;29;20218;-75
2023/03/24 12:54:46;;;;;;;16.25;2.70;;;16.20;95.00;;;;;;4938559;29;20574;-75
2023/03/24 12:57:16;;;;;;;10.73;2.50;;;16.20;94.90;;;;;;4939182;29;20159;-74
2023/03/24 12:59:52;;;;;;;15.30;2.90;;;16.20;95.10;;;;;;4939052;29;20175;-73
2023/03/24 13:02:47;;;;;;;14.40;2.85;;;16.20;95.30;;;;;;4938004;29;20623;-79
2023/03/24 13:05:26;;;;;;;15.45;3.03;;;16.30;95.00;;;;;;4936256;29;20202;-74
2023/03/24 13:07:57;;;;;;;12.68;2.88;;;16.30;95.00;;;;;;4938471;29;20258;-74
2023/03/24 13:10:33;;;;;;;21.52;3.53;;;16.30;95.10;;;;;;4938941;29;20164;-74
2023/03/24 13:13:20;;;;;;;15.50;2.38;;;16.30;95.20;;;;;;4939134;29;20322;-74
2023/03/24 13:15:52;;;;;;;16.58;2.75;;;16.20;95.10;;;;;;4953548;29;20532;-74
2023/03/24 13:18:30;;;;;;;16.33;3.22;;;16.20;95.20;;;;;;4938528;29;20172;-79
2023/03/24 13:21:17;;;;;;;21.05;3.22;;;16.20;95.30;;;;;;4938729;29;20207;-77